Cookshire, Canada
Current Conditions -  °F | °C
As of 6:31 AM on Friday 19 Dec 2014 (Local Time) from CYSC Reporting Station
Light Snow Light Snow  
Wind Chill: 12°   Ceiling: 1000
Heat Index: 21°   Visibility: 9mi
Dew Point: 19°   Wind: 8mph
Humidity: 93%   Direction: 300°WNW
Pressure: 29.92"   Gusts: NA
Location:  45.42°N, 71.62°W
Report Text: CYSC 191131Z AUTO 30007KT 9SM -SN OVC010 M06/M07 A2992 RMK SLP146
Loading
Personal Weather Stations






























Interactive Weather Map New forecast layout! Learn more

10-Day Weather Forecast

Advertisements
Track Severe Weather on mobile